createdAt,value
2023-01-11T00:01:55.313Z,20.05
2023-01-11T00:07:03.140Z,19.05
2023-01-11T00:12:12.754Z,21.48
2023-01-11T00:17:19.280Z,21.30
2023-01-11T00:22:27.518Z,21.90
2023-01-11T00:27:35.572Z,21.20
2023-01-11T00:32:42.085Z,21.77
2023-01-11T00:37:49.910Z,23.75
2023-01-11T00:43:13.712Z,21.50
2023-01-11T00:48:19.965Z,22.50
2023-01-11T00:53:27.787Z,19.38
2023-01-11T00:58:34.692Z,22.00
2023-01-11T01:03:41.125Z,21.95
2023-01-11T01:08:48.830Z,22.20
2023-01-11T01:14:13.045Z,20.67
2023-01-11T01:19:19.686Z,22.05
2023-01-11T01:24:29.143Z,23.55
2023-01-11T01:29:35.804Z,23.15
2023-01-11T01:34:42.116Z,25.52
2023-01-11T01:39:50.007Z,26.33
2023-01-11T01:45:03.733Z,25.27
2023-01-11T01:50:17.694Z,24.00
2023-01-11T01:55:30.850Z,25.40
2023-01-11T02:00:41.080Z,24.75
2023-01-11T02:05:48.414Z,29.77
2023-01-11T02:10:57.213Z,27.85
2023-01-11T02:16:09.513Z,25.23
2023-01-11T02:21:27.952Z,26.55
2023-01-11T02:27:27.951Z,23.33
2023-01-11T02:32:48.962Z,24.98
2023-01-11T02:38:07.124Z,22.80
2023-01-11T02:43:37.551Z,17.20
2023-01-11T02:48:56.282Z,22.08
2023-01-11T02:54:07.704Z,21.17
2023-01-11T02:59:19.029Z,20.27
2023-01-11T03:04:33.150Z,20.15
2023-01-11T03:09:52.555Z,22.38
2023-01-11T03:15:16.916Z,20.27
2023-01-11T03:20:30.706Z,23.60
2023-01-11T03:25:49.956Z,22.88
2023-01-11T03:31:04.239Z,19.95
2023-01-11T03:36:36.725Z,19.02
2023-01-11T03:41:45.323Z,18.30
2023-01-11T03:46:57.537Z,18.67
2023-01-11T03:52:10.186Z,17.83
2023-01-11T03:57:22.336Z,18.70
2023-01-11T04:02:35.934Z,18.20
2023-01-11T04:07:44.304Z,19.65
2023-01-11T04:12:51.317Z,18.07
2023-01-11T04:18:05.348Z,17.80
2023-01-11T04:23:13.244Z,16.58
2023-01-11T04:28:19.755Z,18.85
2023-01-11T04:33:26.940Z,19.02
2023-01-11T04:38:36.396Z,18.08
2023-01-11T04:43:43.542Z,18.88
2023-01-11T04:48:50.050Z,16.88
2023-01-11T04:53:57.779Z,17.23
2023-01-11T04:59:04.466Z,17.88
2023-01-11T05:04:13.324Z,18.15
2023-01-11T05:09:21.841Z,16.48
2023-01-11T05:14:29.057Z,16.93
2023-01-11T05:19:35.336Z,18.02
2023-01-11T05:24:43.943Z,17.10
2023-01-11T05:29:51.948Z,18.10
2023-01-11T05:34:58.412Z,18.08
2023-01-11T05:40:08.462Z,16.77
2023-01-11T05:45:32.280Z,19.30
2023-01-11T05:50:38.854Z,17.92
2023-01-11T05:55:56.039Z,18.25
2023-01-11T06:01:02.527Z,21.02
2023-01-11T06:06:10.434Z,19.35
2023-01-11T06:11:18.729Z,17.13
2023-01-11T06:16:26.351Z,19.10
2023-01-11T06:21:33.349Z,17.00
2023-01-11T06:26:41.731Z,18.30
2023-01-11T06:31:48.896Z,15.60
2023-01-11T06:36:55.365Z,15.77
2023-01-11T06:42:03.567Z,14.65
2023-01-11T06:47:10.031Z,16.58
2023-01-11T06:52:16.896Z,16.05
2023-01-11T06:57:25.017Z,15.25
2023-01-11T07:02:31.452Z,15.10
2023-01-11T07:07:38.258Z,15.80
2023-01-11T07:12:46.034Z,14.32
2023-01-11T07:17:57.495Z,15.93
2023-01-11T07:23:03.880Z,15.65
2023-01-11T07:28:12.877Z,14.27
2023-01-11T07:38:25.409Z,14.63
2023-01-11T07:43:33.845Z,14.05
2023-01-11T07:48:40.130Z,14.10
2023-01-11T07:53:46.320Z,14.82
2023-01-11T07:58:54.333Z,15.45
2023-01-11T08:04:01.186Z,14.43
2023-01-11T08:09:07.861Z,13.90
2023-01-11T08:14:33.336Z,12.55
2023-01-11T08:19:39.793Z,12.45
2023-01-11T08:24:46.449Z,13.35
2023-01-11T08:29:54.524Z,12.68
2023-01-11T08:35:00.920Z,12.40
2023-01-11T08:40:12.945Z,11.30
2023-01-11T08:45:21.290Z,11.63
2023-01-11T08:50:28.319Z,10.37
2023-01-11T08:55:35.042Z,10.40
2023-01-11T09:00:45.306Z,9.68
2023-01-11T09:05:52.280Z,10.00
2023-01-11T09:11:02.850Z,8.15
2023-01-11T09:16:11.109Z,9.93
2023-01-11T09:21:17.641Z,8.90
2023-01-11T09:26:24.021Z,10.20
2023-01-11T09:31:32.125Z,9.48
2023-01-11T09:36:40.519Z,10.13
2023-01-11T09:42:32.661Z,8.85
2023-01-11T09:47:44.066Z,10.90
2023-01-11T09:52:55.141Z,10.20
2023-01-11T09:58:39.409Z,9.02
2023-01-11T10:04:41.110Z,8.55
2023-01-11T10:21:09.903Z,9.85
2023-01-11T10:26:28.637Z,9.05
2023-01-11T10:31:49.603Z,8.85
2023-01-11T10:37:24.231Z,9.85
2023-01-11T10:42:35.454Z,9.15
2023-01-11T10:47:46.837Z,9.20
2023-01-11T10:53:03.187Z,9.13
2023-01-11T10:58:28.586Z,9.75
2023-01-11T11:04:09.269Z,11.07
2023-01-11T11:09:26.486Z,10.07
2023-01-11T11:14:41.237Z,10.27
2023-01-11T11:19:47.845Z,9.20
2023-01-11T11:25:05.450Z,9.98
2023-01-11T11:30:14.979Z,8.57
2023-01-11T11:35:39.052Z,9.30
2023-01-11T11:40:57.501Z,8.05
2023-01-11T11:46:06.569Z,8.90
2023-01-11T11:51:27.022Z,7.93
2023-01-11T11:56:38.411Z,13.13
2023-01-11T12:01:48.689Z,8.75
2023-01-11T12:07:10.067Z,10.20
2023-01-11T12:12:26.899Z,8.35
2023-01-11T12:17:35.705Z,8.80
2023-01-11T12:22:42.178Z,8.23
2023-01-11T12:28:03.577Z,9.38
2023-01-11T12:33:30.233Z,10.90
2023-01-11T12:38:49.319Z,10.73
2023-01-11T12:44:06.548Z,10.25
2023-01-11T12:49:32.957Z,10.82
2023-01-11T12:55:02.431Z,11.75
2023-01-11T13:00:44.082Z,14.35
2023-01-11T13:06:03.579Z,12.45
2023-01-11T13:11:35.431Z,11.27
2023-01-11T13:16:52.783Z,11.68
2023-01-11T13:22:04.897Z,10.43
2023-01-11T13:27:24.939Z,10.30
2023-01-11T13:32:38.021Z,9.70
2023-01-11T13:37:53.673Z,9.45
2023-01-11T13:43:07.179Z,9.85
2023-01-11T13:48:23.625Z,10.40
2023-01-11T13:53:43.582Z,10.68
2023-01-11T13:58:57.285Z,9.65
2023-01-11T14:04:13.070Z,10.43
2023-01-11T14:09:45.680Z,11.27
2023-01-11T14:15:19.680Z,11.63
2023-01-11T14:20:36.875Z,28.52
2023-01-11T14:26:07.725Z,18.58
2023-01-11T14:31:50.081Z,17.98
2023-01-11T14:37:47.907Z,16.98
2023-01-11T14:43:41.154Z,20.58
2023-01-11T14:49:03.250Z,15.35
2023-01-11T14:54:17.468Z,12.80
2023-01-11T14:59:44.394Z,14.48
2023-01-11T15:05:10.415Z,13.02
2023-01-11T15:10:51.015Z,10.82
2023-01-11T15:16:29.417Z,10.90
2023-01-11T15:21:42.373Z,8.98
2023-01-11T15:26:52.552Z,11.20
2023-01-11T15:32:19.794Z,8.70
2023-01-11T15:37:50.286Z,9.95
2023-01-11T15:44:00.344Z,11.18
2023-01-11T15:49:51.516Z,11.07
2023-01-11T15:55:48.633Z,10.20
2023-01-11T16:01:25.194Z,11.05
2023-01-11T16:06:48.279Z,10.85
2023-01-11T16:12:15.827Z,12.45
2023-01-11T16:17:26.323Z,11.77
2023-01-11T16:22:33.571Z,12.75
2023-01-11T16:27:40.775Z,14.25
2023-01-11T16:32:48.927Z,15.45
2023-01-11T16:37:59.226Z,12.97
2023-01-11T16:43:18.794Z,13.18
2023-01-11T16:48:28.860Z,13.80
2023-01-11T16:53:38.073Z,13.10
2023-01-11T16:59:04.518Z,12.32
2023-01-11T17:04:31.425Z,12.32
2023-01-11T17:09:38.504Z,11.95
2023-01-11T17:15:00.490Z,12.30
2023-01-11T17:20:21.571Z,11.07
2023-01-11T17:25:43.511Z,11.20
2023-01-11T17:30:54.019Z,9.88
2023-01-11T17:36:03.463Z,12.77
2023-01-11T17:41:32.428Z,11.32
2023-01-11T17:46:41.178Z,11.63
2023-01-11T17:51:49.207Z,10.80
2023-01-11T17:57:01.926Z,11.63
2023-01-11T18:02:15.549Z,12.95
2023-01-11T18:07:23.627Z,11.35
2023-01-11T18:12:34.036Z,10.73
2023-01-11T18:17:42.785Z,11.82
2023-01-11T18:23:05.237Z,10.00
2023-01-11T18:28:30.627Z,11.13
2023-01-11T18:33:42.137Z,10.73
2023-01-11T18:38:51.119Z,9.20
2023-01-11T18:43:58.909Z,8.73
2023-01-11T18:49:06.811Z,9.48
2023-01-11T18:54:18.938Z,9.77
2023-01-11T18:59:26.032Z,9.27
2023-01-11T19:04:33.535Z,9.20
2023-01-11T19:09:42.678Z,9.20
2023-01-11T19:14:51.393Z,9.20
2023-01-11T19:19:59.870Z,9.18
2023-01-11T19:25:10.688Z,8.75
2023-01-11T19:30:19.208Z,8.18
2023-01-11T19:35:26.872Z,7.40
2023-01-11T19:40:36.895Z,8.02
2023-01-11T19:45:44.721Z,9.23
2023-01-11T19:50:52.287Z,8.38
2023-01-11T19:56:05.710Z,8.07
2023-01-11T20:01:15.137Z,11.30
2023-01-11T20:06:24.089Z,9.05
2023-01-11T20:11:33.167Z,9.52
2023-01-11T20:16:39.909Z,9.32
2023-01-11T20:21:50.214Z,10.10
2023-01-11T20:27:00.497Z,9.55
2023-01-11T20:32:31.100Z,9.68
2023-01-11T20:37:36.431Z,9.45
2023-01-11T20:42:45.798Z,10.05
2023-01-11T20:47:53.313Z,10.55
2023-01-11T20:53:01.414Z,10.75
2023-01-11T20:58:10.311Z,10.20
2023-01-11T21:03:20.202Z,10.30
2023-01-11T21:08:27.246Z,10.23
2023-01-11T21:13:35.668Z,11.05
2023-01-11T21:18:44.122Z,10.38
2023-01-11T21:23:51.089Z,11.05
2023-01-11T21:29:01.395Z,10.18
2023-01-11T21:34:08.309Z,10.60
2023-01-11T21:39:17.010Z,9.65
2023-01-11T21:44:30.077Z,10.73
2023-01-11T21:49:36.552Z,11.70
2023-01-11T21:54:43.737Z,10.43
2023-01-11T21:59:54.297Z,11.05
2023-01-11T22:05:00.800Z,12.48
2023-01-11T22:10:08.135Z,11.23
2023-01-11T22:15:16.123Z,10.25
2023-01-11T22:20:23.991Z,10.65
2023-01-11T22:25:30.528Z,11.60
2023-01-11T22:30:38.588Z,11.70
2023-01-11T22:35:54.895Z,10.35
2023-01-11T22:41:02.177Z,11.45
2023-01-11T22:46:14.275Z,11.65
2023-01-11T22:51:23.755Z,11.70
2023-01-11T22:56:30.941Z,11.02
2023-01-11T23:01:40.766Z,10.95
2023-01-11T23:06:47.629Z,10.90
2023-01-11T23:12:11.771Z,12.93
2023-01-11T23:17:19.711Z,11.60
2023-01-11T23:22:25.920Z,11.55
2023-01-11T23:27:32.211Z,10.43
2023-01-11T23:32:42.635Z,12.07
2023-01-11T23:37:51.070Z,11.07
2023-01-11T23:43:01.689Z,12.85
2023-01-11T23:48:09.885Z,12.37
2023-01-11T23:53:18.052Z,13.00
2023-01-11T23:58:24.544Z,13.03
